sensor_id;sensor_type;location;lat;lon;timestamp;temperature;humidity
67598;DHT22;62026;39.230;9.122;2023-08-06T00:00:28;24.60;58.50
67598;DHT22;62026;39.230;9.122;2023-08-06T00:02:54;24.60;58.60
67598;DHT22;62026;39.230;9.122;2023-08-06T00:05:20;24.60;58.70
67598;DHT22;62026;39.230;9.122;2023-08-06T00:07:47;24.60;58.80
67598;DHT22;62026;39.230;9.122;2023-08-06T00:10:14;24.60;58.80
67598;DHT22;62026;39.230;9.122;2023-08-06T00:12:40;24.60;58.70
67598;DHT22;62026;39.230;9.122;2023-08-06T00:15:07;24.50;58.70
67598;DHT22;62026;39.230;9.122;2023-08-06T00:17:34;24.50;58.80
67598;DHT22;62026;39.230;9.122;2023-08-06T00:20:01;24.50;59.10
67598;DHT22;62026;39.230;9.122;2023-08-06T00:22:35;24.50;59.30
67598;DHT22;62026;39.230;9.122;2023-08-06T00:25:03;24.50;59.50
67598;DHT22;62026;39.230;9.122;2023-08-06T00:27:30;24.50;59.70
67598;DHT22;62026;39.230;9.122;2023-08-06T00:29:58;24.50;59.70
67598;DHT22;62026;39.230;9.122;2023-08-06T00:32:24;24.50;59.60
67598;DHT22;62026;39.230;9.122;2023-08-06T00:34:50;24.50;59.70
67598;DHT22;62026;39.230;9.122;2023-08-06T00:37:17;24.50;59.90
67598;DHT22;62026;39.230;9.122;2023-08-06T00:39:43;24.40;59.90
67598;DHT22;62026;39.230;9.122;2023-08-06T00:42:11;24.40;59.90
67598;DHT22;62026;39.230;9.122;2023-08-06T00:44:38;24.40;59.70
67598;DHT22;62026;39.230;9.122;2023-08-06T00:47:06;24.40;59.60
67598;DHT22;62026;39.230;9.122;2023-08-06T00:49:37;24.40;59.40
67598;DHT22;62026;39.230;9.122;2023-08-06T00:52:05;24.40;59.10
67598;DHT22;62026;39.230;9.122;2023-08-06T00:54:36;24.30;59.00
67598;DHT22;62026;39.230;9.122;2023-08-06T00:57:04;24.30;58.80
67598;DHT22;62026;39.230;9.122;2023-08-06T00:59:31;24.30;58.70
67598;DHT22;62026;39.230;9.122;2023-08-06T01:01:58;24.30;58.50
67598;DHT22;62026;39.230;9.122;2023-08-06T01:04:25;24.30;58.30
67598;DHT22;62026;39.230;9.122;2023-08-06T01:16:18;24.30;57.50
67598;DHT22;62026;39.230;9.122;2023-08-06T01:18:48;24.20;57.30
67598;DHT22;62026;39.230;9.122;2023-08-06T01:21:18;24.30;57.20
67598;DHT22;62026;39.230;9.122;2023-08-06T01:23:45;24.30;57.20
67598;DHT22;62026;39.230;9.122;2023-08-06T01:29:04;24.30;56.90
67598;DHT22;62026;39.230;9.122;2023-08-06T01:31:37;24.20;56.90
67598;DHT22;62026;39.230;9.122;2023-08-06T01:34:07;24.30;57.00
67598;DHT22;62026;39.230;9.122;2023-08-06T01:36:39;24.20;56.90
67598;DHT22;62026;39.230;9.122;2023-08-06T01:39:06;24.20;56.90
67598;DHT22;62026;39.230;9.122;2023-08-06T01:41:32;24.20;56.90
67598;DHT22;62026;39.230;9.122;2023-08-06T01:43:58;24.20;56.90
67598;DHT22;62026;39.230;9.122;2023-08-06T01:46:24;24.20;56.90
67598;DHT22;62026;39.230;9.122;2023-08-06T01:48:51;24.20;56.80
67598;DHT22;62026;39.230;9.122;2023-08-06T01:51:17;24.20;56.90
67598;DHT22;62026;39.230;9.122;2023-08-06T01:53:43;24.20;56.90
67598;DHT22;62026;39.230;9.122;2023-08-06T01:56:09;24.20;56.80
67598;DHT22;62026;39.230;9.122;2023-08-06T01:58:35;24.20;56.80
67598;DHT22;62026;39.230;9.122;2023-08-06T02:01:02;24.20;56.90
67598;DHT22;62026;39.230;9.122;2023-08-06T02:03:28;24.20;56.90
67598;DHT22;62026;39.230;9.122;2023-08-06T02:05:54;24.20;56.90
67598;DHT22;62026;39.230;9.122;2023-08-06T02:08:20;24.20;57.00
67598;DHT22;62026;39.230;9.122;2023-08-06T02:10:46;24.20;57.00
67598;DHT22;62026;39.230;9.122;2023-08-06T02:13:12;24.20;57.00
67598;DHT22;62026;39.230;9.122;2023-08-06T02:15:45;24.10;57.10
67598;DHT22;62026;39.230;9.122;2023-08-06T02:18:15;24.10;57.10
67598;DHT22;62026;39.230;9.122;2023-08-06T02:20:42;24.10;57.20
67598;DHT22;62026;39.230;9.122;2023-08-06T02:23:08;24.10;57.20
67598;DHT22;62026;39.230;9.122;2023-08-06T02:25:35;24.10;57.30
67598;DHT22;62026;39.230;9.122;2023-08-06T02:28:01;24.10;57.40
67598;DHT22;62026;39.230;9.122;2023-08-06T02:30:27;24.10;57.50
67598;DHT22;62026;39.230;9.122;2023-08-06T02:32:53;24.10;57.50
67598;DHT22;62026;39.230;9.122;2023-08-06T02:35:19;24.10;57.60
67598;DHT22;62026;39.230;9.122;2023-08-06T02:37:46;24.10;57.60
67598;DHT22;62026;39.230;9.122;2023-08-06T02:40:12;24.10;57.70
67598;DHT22;62026;39.230;9.122;2023-08-06T02:42:37;24.10;57.70
67598;DHT22;62026;39.230;9.122;2023-08-06T02:45:04;24.10;57.80
67598;DHT22;62026;39.230;9.122;2023-08-06T02:47:30;24.10;58.00
67598;DHT22;62026;39.230;9.122;2023-08-06T02:49:57;24.10;58.10
67598;DHT22;62026;39.230;9.122;2023-08-06T02:52:23;24.10;58.30
67598;DHT22;62026;39.230;9.122;2023-08-06T02:54:49;24.10;58.40
67598;DHT22;62026;39.230;9.122;2023-08-06T02:57:16;24.10;58.50
67598;DHT22;62026;39.230;9.122;2023-08-06T02:59:42;24.10;58.60
67598;DHT22;62026;39.230;9.122;2023-08-06T03:02:17;24.00;58.50
67598;DHT22;62026;39.230;9.122;2023-08-06T03:04:53;24.10;58.40
67598;DHT22;62026;39.230;9.122;2023-08-06T03:07:22;24.10;58.40
67598;DHT22;62026;39.230;9.122;2023-08-06T03:09:54;24.00;58.30
67598;DHT22;62026;39.230;9.122;2023-08-06T03:12:20;24.00;58.10
67598;DHT22;62026;39.230;9.122;2023-08-06T03:14:47;24.00;58.10
67598;DHT22;62026;39.230;9.122;2023-08-06T03:17:14;24.00;58.10
67598;DHT22;62026;39.230;9.122;2023-08-06T03:19:41;24.00;58.00
67598;DHT22;62026;39.230;9.122;2023-08-06T03:22:07;24.00;58.10
67598;DHT22;62026;39.230;9.122;2023-08-06T03:24:34;23.90;58.00
67598;DHT22;62026;39.230;9.122;2023-08-06T03:27:00;23.90;58.20
67598;DHT22;62026;39.230;9.122;2023-08-06T03:29:26;23.90;58.30
67598;DHT22;62026;39.230;9.122;2023-08-06T03:31:53;23.90;58.40
67598;DHT22;62026;39.230;9.122;2023-08-06T03:34:19;23.90;58.50
67598;DHT22;62026;39.230;9.122;2023-08-06T03:36:47;23.90;58.60
67598;DHT22;62026;39.230;9.122;2023-08-06T03:39:13;23.80;58.70
67598;DHT22;62026;39.230;9.122;2023-08-06T03:41:41;23.80;58.80
67598;DHT22;62026;39.230;9.122;2023-08-06T03:44:07;23.80;58.90
67598;DHT22;62026;39.230;9.122;2023-08-06T03:46:33;23.80;58.80
67598;DHT22;62026;39.230;9.122;2023-08-06T03:49:00;23.80;58.90
67598;DHT22;62026;39.230;9.122;2023-08-06T03:51:26;23.80;58.90
67598;DHT22;62026;39.230;9.122;2023-08-06T03:53:53;23.80;58.90
67598;DHT22;62026;39.230;9.122;2023-08-06T03:56:19;23.70;58.80
67598;DHT22;62026;39.230;9.122;2023-08-06T03:58:45;23.70;58.90
67598;DHT22;62026;39.230;9.122;2023-08-06T04:01:12;23.70;58.90
67598;DHT22;62026;39.230;9.122;2023-08-06T04:03:44;23.70;59.00
67598;DHT22;62026;39.230;9.122;2023-08-06T04:06:09;23.60;59.00
67598;DHT22;62026;39.230;9.122;2023-08-06T04:08:36;23.70;59.00
67598;DHT22;62026;39.230;9.122;2023-08-06T04:11:02;23.60;59.10
67598;DHT22;62026;39.230;9.122;2023-08-06T04:13:29;23.60;59.10
67598;DHT22;62026;39.230;9.122;2023-08-06T04:16:03;23.60;59.20
67598;DHT22;62026;39.230;9.122;2023-08-06T04:18:31;23.60;59.10
67598;DHT22;62026;39.230;9.122;2023-08-06T04:20:57;23.60;59.10
67598;DHT22;62026;39.230;9.122;2023-08-06T04:23:23;23.60;59.20
67598;DHT22;62026;39.230;9.122;2023-08-06T04:25:55;23.60;59.20
67598;DHT22;62026;39.230;9.122;2023-08-06T04:28:22;23.60;59.30
67598;DHT22;62026;39.230;9.122;2023-08-06T04:30:48;23.60;59.30
67598;DHT22;62026;39.230;9.122;2023-08-06T04:33:14;23.60;59.30
67598;DHT22;62026;39.230;9.122;2023-08-06T04:35:41;23.60;59.30
67598;DHT22;62026;39.230;9.122;2023-08-06T04:38:07;23.60;59.30
67598;DHT22;62026;39.230;9.122;2023-08-06T04:40:34;23.60;59.30
67598;DHT22;62026;39.230;9.122;2023-08-06T04:43:01;23.60;59.40
67598;DHT22;62026;39.230;9.122;2023-08-06T04:45:30;23.60;59.30
67598;DHT22;62026;39.230;9.122;2023-08-06T04:47:56;23.60;59.40
67598;DHT22;62026;39.230;9.122;2023-08-06T04:50:22;23.60;59.30
67598;DHT22;62026;39.230;9.122;2023-08-06T04:52:48;23.60;59.40
67598;DHT22;62026;39.230;9.122;2023-08-06T04:55:14;23.60;59.30
67598;DHT22;62026;39.230;9.122;2023-08-06T04:57:40;23.60;59.30
67598;DHT22;62026;39.230;9.122;2023-08-06T05:00:06;23.60;59.30
67598;DHT22;62026;39.230;9.122;2023-08-06T05:02:32;23.60;59.30
67598;DHT22;62026;39.230;9.122;2023-08-06T05:05:00;23.60;59.40
67598;DHT22;62026;39.230;9.122;2023-08-06T05:07:26;23.60;59.30
67598;DHT22;62026;39.230;9.122;2023-08-06T05:09:52;23.60;59.30
67598;DHT22;62026;39.230;9.122;2023-08-06T05:12:17;23.60;59.40
67598;DHT22;62026;39.230;9.122;2023-08-06T05:14:43;23.70;59.40
67598;DHT22;62026;39.230;9.122;2023-08-06T05:17:09;23.70;59.30
67598;DHT22;62026;39.230;9.122;2023-08-06T05:19:35;23.70;59.30
67598;DHT22;62026;39.230;9.122;2023-08-06T05:22:01;23.80;59.30
67598;DHT22;62026;39.230;9.122;2023-08-06T05:24:27;23.80;59.30
67598;DHT22;62026;39.230;9.122;2023-08-06T05:26:53;23.80;59.20
67598;DHT22;62026;39.230;9.122;2023-08-06T05:29:19;23.90;59.10
67598;DHT22;62026;39.230;9.122;2023-08-06T05:31:45;23.90;59.10
67598;DHT22;62026;39.230;9.122;2023-08-06T05:34:11;24.00;58.90
67598;DHT22;62026;39.230;9.122;2023-08-06T05:36:37;24.00;58.90
67598;DHT22;62026;39.230;9.122;2023-08-06T05:39:03;24.10;58.80
67598;DHT22;62026;39.230;9.122;2023-08-06T05:41:29;24.10;58.60
67598;DHT22;62026;39.230;9.122;2023-08-06T05:43:55;24.20;58.50
67598;DHT22;62026;39.230;9.122;2023-08-06T05:46:21;24.20;58.40
67598;DHT22;62026;39.230;9.122;2023-08-06T05:48:47;24.30;58.30
67598;DHT22;62026;39.230;9.122;2023-08-06T05:51:13;24.30;58.10
67598;DHT22;62026;39.230;9.122;2023-08-06T05:53:39;24.40;57.80
67598;DHT22;62026;39.230;9.122;2023-08-06T05:56:04;24.40;57.60
67598;DHT22;62026;39.230;9.122;2023-08-06T05:58:30;24.50;57.60
67598;DHT22;62026;39.230;9.122;2023-08-06T06:00:56;24.50;57.40
67598;DHT22;62026;39.230;9.122;2023-08-06T06:03:22;24.50;57.30
67598;DHT22;62026;39.230;9.122;2023-08-06T06:05:48;24.60;57.00
67598;DHT22;62026;39.230;9.122;2023-08-06T06:08:14;24.70;57.00
67598;DHT22;62026;39.230;9.122;2023-08-06T06:10:41;24.80;56.80
67598;DHT22;62026;39.230;9.122;2023-08-06T06:13:07;24.80;56.70
67598;DHT22;62026;39.230;9.122;2023-08-06T06:15:33;24.90;56.60
67598;DHT22;62026;39.230;9.122;2023-08-06T06:17:59;24.90;56.50
67598;DHT22;62026;39.230;9.122;2023-08-06T06:20:25;25.00;56.50
67598;DHT22;62026;39.230;9.122;2023-08-06T06:22:51;25.00;56.30
67598;DHT22;62026;39.230;9.122;2023-08-06T06:25:16;25.10;56.40
67598;DHT22;62026;39.230;9.122;2023-08-06T06:27:42;25.10;56.10
67598;DHT22;62026;39.230;9.122;2023-08-06T06:30:09;25.20;55.90
67598;DHT22;62026;39.230;9.122;2023-08-06T06:32:37;25.20;55.80
67598;DHT22;62026;39.230;9.122;2023-08-06T06:35:03;25.30;55.60
67598;DHT22;62026;39.230;9.122;2023-08-06T06:37:29;25.30;55.20
67598;DHT22;62026;39.230;9.122;2023-08-06T06:39:55;25.40;54.90
67598;DHT22;62026;39.230;9.122;2023-08-06T06:42:21;25.40;54.70
67598;DHT22;62026;39.230;9.122;2023-08-06T06:44:50;25.40;54.40
67598;DHT22;62026;39.230;9.122;2023-08-06T06:47:16;25.50;54.30
67598;DHT22;62026;39.230;9.122;2023-08-06T06:49:42;25.50;53.90
67598;DHT22;62026;39.230;9.122;2023-08-06T06:52:08;25.50;53.80
67598;DHT22;62026;39.230;9.122;2023-08-06T06:54:34;25.60;53.50
67598;DHT22;62026;39.230;9.122;2023-08-06T06:57:00;25.60;53.30
67598;DHT22;62026;39.230;9.122;2023-08-06T06:59:26;25.70;53.20
67598;DHT22;62026;39.230;9.122;2023-08-06T07:01:52;25.80;53.00
67598;DHT22;62026;39.230;9.122;2023-08-06T07:04:18;25.80;52.70
67598;DHT22;62026;39.230;9.122;2023-08-06T07:06:44;25.80;52.50
67598;DHT22;62026;39.230;9.122;2023-08-06T07:09:10;25.90;52.10
67598;DHT22;62026;39.230;9.122;2023-08-06T07:11:36;25.90;51.80
67598;DHT22;62026;39.230;9.122;2023-08-06T07:14:02;26.00;51.30
67598;DHT22;62026;39.230;9.122;2023-08-06T07:16:28;26.00;50.10
67598;DHT22;62026;39.230;9.122;2023-08-06T07:18:54;26.10;49.30
67598;DHT22;62026;39.230;9.122;2023-08-06T07:21:21;26.10;49.20
67598;DHT22;62026;39.230;9.122;2023-08-06T07:23:47;26.10;49.00
67598;DHT22;62026;39.230;9.122;2023-08-06T07:26:15;26.20;48.90
67598;DHT22;62026;39.230;9.122;2023-08-06T07:28:42;26.20;48.50
67598;DHT22;62026;39.230;9.122;2023-08-06T07:31:08;26.20;48.30
67598;DHT22;62026;39.230;9.122;2023-08-06T07:33:34;26.30;47.50
67598;DHT22;62026;39.230;9.122;2023-08-06T07:36:06;26.30;46.80
67598;DHT22;62026;39.230;9.122;2023-08-06T07:38:33;26.30;46.90
67598;DHT22;62026;39.230;9.122;2023-08-06T07:41:01;26.40;47.20
67598;DHT22;62026;39.230;9.122;2023-08-06T07:43:28;26.40;46.70
67598;DHT22;62026;39.230;9.122;2023-08-06T07:45:54;26.50;46.80
67598;DHT22;62026;39.230;9.122;2023-08-06T07:48:23;26.50;46.60
67598;DHT22;62026;39.230;9.122;2023-08-06T07:50:52;26.60;46.30
67598;DHT22;62026;39.230;9.122;2023-08-06T07:53:20;26.70;46.70
67598;DHT22;62026;39.230;9.122;2023-08-06T07:55:51;26.80;46.90
67598;DHT22;62026;39.230;9.122;2023-08-06T07:58:19;26.90;46.80
67598;DHT22;62026;39.230;9.122;2023-08-06T08:00:46;26.90;46.90
67598;DHT22;62026;39.230;9.122;2023-08-06T08:03:13;27.00;46.90
67598;DHT22;62026;39.230;9.122;2023-08-06T08:05:41;26.90;46.70
67598;DHT22;62026;39.230;9.122;2023-08-06T08:08:08;27.00;46.70
67598;DHT22;62026;39.230;9.122;2023-08-06T08:10:35;27.00;46.20
67598;DHT22;62026;39.230;9.122;2023-08-06T08:13:04;27.10;46.20
67598;DHT22;62026;39.230;9.122;2023-08-06T08:15:32;27.20;46.20
67598;DHT22;62026;39.230;9.122;2023-08-06T08:17:59;27.30;46.00
67598;DHT22;62026;39.230;9.122;2023-08-06T08:20:26;27.40;45.40
67598;DHT22;62026;39.230;9.122;2023-08-06T08:22:58;27.40;45.50
67598;DHT22;62026;39.230;9.122;2023-08-06T08:25:24;27.50;45.40
67598;DHT22;62026;39.230;9.122;2023-08-06T08:27:50;27.60;45.60
67598;DHT22;62026;39.230;9.122;2023-08-06T08:30:16;27.60;45.50
67598;DHT22;62026;39.230;9.122;2023-08-06T08:32:42;27.70;45.50
67598;DHT22;62026;39.230;9.122;2023-08-06T08:35:08;27.80;45.10
67598;DHT22;62026;39.230;9.122;2023-08-06T08:37:35;27.80;45.00
67598;DHT22;62026;39.230;9.122;2023-08-06T08:40:02;27.90;45.10
67598;DHT22;62026;39.230;9.122;2023-08-06T08:42:29;27.90;45.20
67598;DHT22;62026;39.230;9.122;2023-08-06T08:44:55;28.00;45.10
67598;DHT22;62026;39.230;9.122;2023-08-06T08:47:22;28.00;44.90
67598;DHT22;62026;39.230;9.122;2023-08-06T08:49:54;28.10;44.90
67598;DHT22;62026;39.230;9.122;2023-08-06T08:52:24;28.10;44.50
67598;DHT22;62026;39.230;9.122;2023-08-06T08:54:51;28.10;44.80
67598;DHT22;62026;39.230;9.122;2023-08-06T08:57:19;28.10;44.80
67598;DHT22;62026;39.230;9.122;2023-08-06T08:59:46;28.20;44.70
67598;DHT22;62026;39.230;9.122;2023-08-06T09:02:13;28.20;44.50
67598;DHT22;62026;39.230;9.122;2023-08-06T09:04:41;28.20;44.30
67598;DHT22;62026;39.230;9.122;2023-08-06T09:07:11;28.20;44.70
67598;DHT22;62026;39.230;9.122;2023-08-06T09:09:42;28.40;44.90
67598;DHT22;62026;39.230;9.122;2023-08-06T09:12:14;28.50;44.90
67598;DHT22;62026;39.230;9.122;2023-08-06T09:14:41;28.50;43.90
67598;DHT22;62026;39.230;9.122;2023-08-06T09:17:08;28.50;43.30
67598;DHT22;62026;39.230;9.122;2023-08-06T09:19:36;28.50;43.10
67598;DHT22;62026;39.230;9.122;2023-08-06T09:22:03;28.50;42.60
67598;DHT22;62026;39.230;9.122;2023-08-06T09:24:29;28.60;42.20
67598;DHT22;62026;39.230;9.122;2023-08-06T09:26:55;28.70;42.10
67598;DHT22;62026;39.230;9.122;2023-08-06T09:29:21;28.70;41.60
67598;DHT22;62026;39.230;9.122;2023-08-06T09:31:48;28.70;41.00
67598;DHT22;62026;39.230;9.122;2023-08-06T09:34:19;28.70;41.00
67598;DHT22;62026;39.230;9.122;2023-08-06T09:36:51;28.80;41.70
67598;DHT22;62026;39.230;9.122;2023-08-06T09:39:20;28.80;42.00
67598;DHT22;62026;39.230;9.122;2023-08-06T09:41:47;28.90;40.70
67598;DHT22;62026;39.230;9.122;2023-08-06T09:44:18;28.90;41.00
67598;DHT22;62026;39.230;9.122;2023-08-06T09:46:51;28.90;41.60
67598;DHT22;62026;39.230;9.122;2023-08-06T09:49:25;28.90;41.60
67598;DHT22;62026;39.230;9.122;2023-08-06T09:51:53;29.00;41.20
67598;DHT22;62026;39.230;9.122;2023-08-06T09:54:24;29.00;40.90
67598;DHT22;62026;39.230;9.122;2023-08-06T09:56:53;29.00;41.20
67598;DHT22;62026;39.230;9.122;2023-08-06T09:59:20;29.00;41.50
67598;DHT22;62026;39.230;9.122;2023-08-06T10:01:47;29.00;40.80
67598;DHT22;62026;39.230;9.122;2023-08-06T10:04:15;28.90;40.80
67598;DHT22;62026;39.230;9.122;2023-08-06T10:06:47;29.00;41.10
67598;DHT22;62026;39.230;9.122;2023-08-06T10:09:16;29.00;41.30
67598;DHT22;62026;39.230;9.122;2023-08-06T10:11:44;28.90;41.20
67598;DHT22;62026;39.230;9.122;2023-08-06T10:14:23;28.90;40.50
67598;DHT22;62026;39.230;9.122;2023-08-06T10:16:52;28.80;39.80
67598;DHT22;62026;39.230;9.122;2023-08-06T10:19:20;28.80;40.80
67598;DHT22;62026;39.230;9.122;2023-08-06T10:22:09;28.80;39.80
67598;DHT22;62026;39.230;9.122;2023-08-06T10:24:50;28.80;40.40
67598;DHT22;62026;39.230;9.122;2023-08-06T10:33:00;28.70;39.60
67598;DHT22;62026;39.230;9.122;2023-08-06T10:38:08;28.50;40.80
67598;DHT22;62026;39.230;9.122;2023-08-06T10:40:37;28.50;40.10
67598;DHT22;62026;39.230;9.122;2023-08-06T10:43:06;28.50;39.50
67598;DHT22;62026;39.230;9.122;2023-08-06T10:45:35;28.40;40.50
67598;DHT22;62026;39.230;9.122;2023-08-06T10:48:03;28.40;41.30
67598;DHT22;62026;39.230;9.122;2023-08-06T10:50:30;28.40;41.40
67598;DHT22;62026;39.230;9.122;2023-08-06T10:52:57;28.40;41.70
67598;DHT22;62026;39.230;9.122;2023-08-06T10:55:31;28.40;41.60
67598;DHT22;62026;39.230;9.122;2023-08-06T10:57:58;28.40;40.40
67598;DHT22;62026;39.230;9.122;2023-08-06T11:00:24;28.40;39.40
67598;DHT22;62026;39.230;9.122;2023-08-06T11:02:52;28.40;39.80
67598;DHT22;62026;39.230;9.122;2023-08-06T11:05:19;28.30;40.40
67598;DHT22;62026;39.230;9.122;2023-08-06T11:07:45;28.30;39.90
67598;DHT22;62026;39.230;9.122;2023-08-06T11:10:13;28.30;39.90
67598;DHT22;62026;39.230;9.122;2023-08-06T11:12:40;28.40;40.50
67598;DHT22;62026;39.230;9.122;2023-08-06T11:15:06;28.30;40.70
67598;DHT22;62026;39.230;9.122;2023-08-06T11:17:34;28.30;41.10
67598;DHT22;62026;39.230;9.122;2023-08-06T11:20:04;28.20;41.30
67598;DHT22;62026;39.230;9.122;2023-08-06T11:22:31;28.20;41.40
67598;DHT22;62026;39.230;9.122;2023-08-06T11:24:57;28.20;41.00
67598;DHT22;62026;39.230;9.122;2023-08-06T11:27:26;28.20;41.10
67598;DHT22;62026;39.230;9.122;2023-08-06T11:29:54;28.20;40.80
67598;DHT22;62026;39.230;9.122;2023-08-06T11:32:20;28.20;40.00
67598;DHT22;62026;39.230;9.122;2023-08-06T11:34:46;28.20;39.90
67598;DHT22;62026;39.230;9.122;2023-08-06T11:37:12;28.20;39.40
67598;DHT22;62026;39.230;9.122;2023-08-06T11:39:39;28.20;40.00
67598;DHT22;62026;39.230;9.122;2023-08-06T11:42:12;28.20;40.20
67598;DHT22;62026;39.230;9.122;2023-08-06T11:44:38;28.10;40.40
67598;DHT22;62026;39.230;9.122;2023-08-06T11:47:16;28.10;40.60
67598;DHT22;62026;39.230;9.122;2023-08-06T11:49:47;28.20;40.60
67598;DHT22;62026;39.230;9.122;2023-08-06T11:55:07;28.20;40.10
67598;DHT22;62026;39.230;9.122;2023-08-06T11:57:34;28.20;40.40
67598;DHT22;62026;39.230;9.122;2023-08-06T12:00:10;28.20;40.10
67598;DHT22;62026;39.230;9.122;2023-08-06T12:02:45;28.20;40.30
67598;DHT22;62026;39.230;9.122;2023-08-06T12:05:15;28.20;40.20
67598;DHT22;62026;39.230;9.122;2023-08-06T12:07:49;28.20;39.60
67598;DHT22;62026;39.230;9.122;2023-08-06T12:10:18;28.10;39.00
67598;DHT22;62026;39.230;9.122;2023-08-06T12:12:48;28.10;38.80
67598;DHT22;62026;39.230;9.122;2023-08-06T12:15:15;28.00;39.50
67598;DHT22;62026;39.230;9.122;2023-08-06T12:17:42;28.00;40.10
67598;DHT22;62026;39.230;9.122;2023-08-06T12:20:09;28.00;39.40
67598;DHT22;62026;39.230;9.122;2023-08-06T12:22:36;28.00;38.50
67598;DHT22;62026;39.230;9.122;2023-08-06T12:25:09;28.00;38.90
67598;DHT22;62026;39.230;9.122;2023-08-06T12:27:44;27.90;39.00
67598;DHT22;62026;39.230;9.122;2023-08-06T12:30:12;27.90;37.50
67598;DHT22;62026;39.230;9.122;2023-08-06T12:32:39;27.90;36.60
67598;DHT22;62026;39.230;9.122;2023-08-06T12:35:05;27.90;36.70
67598;DHT22;62026;39.230;9.122;2023-08-06T12:37:33;27.90;37.60
67598;DHT22;62026;39.230;9.122;2023-08-06T12:39:59;27.90;37.60
67598;DHT22;62026;39.230;9.122;2023-08-06T12:42:25;27.90;37.60
67598;DHT22;62026;39.230;9.122;2023-08-06T12:44:52;27.80;37.60
67598;DHT22;62026;39.230;9.122;2023-08-06T12:47:18;27.80;37.50
67598;DHT22;62026;39.230;9.122;2023-08-06T12:49:44;27.80;38.00
67598;DHT22;62026;39.230;9.122;2023-08-06T12:52:10;27.90;38.40
67598;DHT22;62026;39.230;9.122;2023-08-06T12:54:38;27.90;37.20
67598;DHT22;62026;39.230;9.122;2023-08-06T12:57:05;27.90;36.70
67598;DHT22;62026;39.230;9.122;2023-08-06T12:59:31;27.80;36.70
67598;DHT22;62026;39.230;9.122;2023-08-06T13:01:59;27.80;36.70
67598;DHT22;62026;39.230;9.122;2023-08-06T13:04:25;27.80;36.90
67598;DHT22;62026;39.230;9.122;2023-08-06T13:06:51;27.80;37.30
67598;DHT22;62026;39.230;9.122;2023-08-06T13:09:17;27.80;37.80
67598;DHT22;62026;39.230;9.122;2023-08-06T13:11:43;27.80;37.90
67598;DHT22;62026;39.230;9.122;2023-08-06T13:14:13;27.90;37.80
67598;DHT22;62026;39.230;9.122;2023-08-06T13:16:41;27.90;38.00
67598;DHT22;62026;39.230;9.122;2023-08-06T13:19:09;27.90;37.60
67598;DHT22;62026;39.230;9.122;2023-08-06T13:22:04;27.90;37.30
67598;DHT22;62026;39.230;9.122;2023-08-06T13:24:34;27.90;37.00
67598;DHT22;62026;39.230;9.122;2023-08-06T13:27:00;27.90;37.00
67598;DHT22;62026;39.230;9.122;2023-08-06T13:29:27;27.90;37.20
67598;DHT22;62026;39.230;9.122;2023-08-06T13:31:53;27.90;36.80
67598;DHT22;62026;39.230;9.122;2023-08-06T13:34:20;27.90;36.70
67598;DHT22;62026;39.230;9.122;2023-08-06T13:36:46;27.90;36.50
67598;DHT22;62026;39.230;9.122;2023-08-06T13:39:12;27.90;37.40
67598;DHT22;62026;39.230;9.122;2023-08-06T13:41:38;27.90;37.20
67598;DHT22;62026;39.230;9.122;2023-08-06T13:44:07;27.90;36.80
67598;DHT22;62026;39.230;9.122;2023-08-06T13:46:33;27.90;36.70
67598;DHT22;62026;39.230;9.122;2023-08-06T13:48:58;27.90;35.80
67598;DHT22;62026;39.230;9.122;2023-08-06T13:51:24;27.90;35.20
67598;DHT22;62026;39.230;9.122;2023-08-06T13:53:50;27.80;35.60
67598;DHT22;62026;39.230;9.122;2023-08-06T13:56:18;27.80;35.70
67598;DHT22;62026;39.230;9.122;2023-08-06T13:58:44;27.80;35.20
67598;DHT22;62026;39.230;9.122;2023-08-06T14:01:11;27.80;34.90
67598;DHT22;62026;39.230;9.122;2023-08-06T14:03:42;27.80;35.00
67598;DHT22;62026;39.230;9.122;2023-08-06T14:06:08;27.80;35.30
67598;DHT22;62026;39.230;9.122;2023-08-06T14:08:34;27.80;34.20
67598;DHT22;62026;39.230;9.122;2023-08-06T14:11:00;27.80;33.20
67598;DHT22;62026;39.230;9.122;2023-08-06T14:13:26;27.80;32.20
67598;DHT22;62026;39.230;9.122;2023-08-06T14:15:52;27.80;32.50
67598;DHT22;62026;39.230;9.122;2023-08-06T14:18:18;27.80;32.00
67598;DHT22;62026;39.230;9.122;2023-08-06T14:20:44;27.70;31.90
67598;DHT22;62026;39.230;9.122;2023-08-06T14:23:10;27.70;32.00
67598;DHT22;62026;39.230;9.122;2023-08-06T14:25:38;27.80;31.90
67598;DHT22;62026;39.230;9.122;2023-08-06T14:28:05;27.80;31.30
67598;DHT22;62026;39.230;9.122;2023-08-06T14:30:32;27.80;30.80
67598;DHT22;62026;39.230;9.122;2023-08-06T14:32:59;27.80;30.80
67598;DHT22;62026;39.230;9.122;2023-08-06T14:35:26;27.80;30.00
67598;DHT22;62026;39.230;9.122;2023-08-06T14:37:52;27.80;31.10
67598;DHT22;62026;39.230;9.122;2023-08-06T14:40:18;27.80;31.90
67598;DHT22;62026;39.230;9.122;2023-08-06T14:42:44;27.80;30.60
67598;DHT22;62026;39.230;9.122;2023-08-06T14:45:10;27.80;31.00
67598;DHT22;62026;39.230;9.122;2023-08-06T14:47:36;27.80;30.70
67598;DHT22;62026;39.230;9.122;2023-08-06T14:50:02;27.70;30.60
67598;DHT22;62026;39.230;9.122;2023-08-06T14:52:28;27.70;30.90
67598;DHT22;62026;39.230;9.122;2023-08-06T14:54:55;27.70;31.40
67598;DHT22;62026;39.230;9.122;2023-08-06T14:57:21;27.70;30.80
67598;DHT22;62026;39.230;9.122;2023-08-06T14:59:53;27.70;31.40
67598;DHT22;62026;39.230;9.122;2023-08-06T15:02:19;27.70;32.20
67598;DHT22;62026;39.230;9.122;2023-08-06T15:04:45;27.70;31.90
67598;DHT22;62026;39.230;9.122;2023-08-06T15:07:11;27.60;32.20
67598;DHT22;62026;39.230;9.122;2023-08-06T15:09:37;27.70;32.00
67598;DHT22;62026;39.230;9.122;2023-08-06T15:12:03;27.70;32.40
67598;DHT22;62026;39.230;9.122;2023-08-06T15:14:30;27.60;32.30
67598;DHT22;62026;39.230;9.122;2023-08-06T15:16:56;27.60;32.80
67598;DHT22;62026;39.230;9.122;2023-08-06T15:19:24;27.60;33.40
67598;DHT22;62026;39.230;9.122;2023-08-06T15:21:50;27.60;33.90
67598;DHT22;62026;39.230;9.122;2023-08-06T15:24:16;27.50;34.00
67598;DHT22;62026;39.230;9.122;2023-08-06T15:26:42;27.50;33.80
67598;DHT22;62026;39.230;9.122;2023-08-06T15:29:08;27.50;34.10
67598;DHT22;62026;39.230;9.122;2023-08-06T15:31:39;27.50;34.20
67598;DHT22;62026;39.230;9.122;2023-08-06T15:34:06;27.50;34.50
67598;DHT22;62026;39.230;9.122;2023-08-06T15:36:33;27.50;34.50
67598;DHT22;62026;39.230;9.122;2023-08-06T15:39:00;27.50;34.30
67598;DHT22;62026;39.230;9.122;2023-08-06T15:41:27;27.50;34.70
67598;DHT22;62026;39.230;9.122;2023-08-06T15:43:53;27.50;35.20
67598;DHT22;62026;39.230;9.122;2023-08-06T15:46:19;27.50;35.30
67598;DHT22;62026;39.230;9.122;2023-08-06T15:48:45;27.50;35.30
67598;DHT22;62026;39.230;9.122;2023-08-06T15:51:11;27.50;35.10
67598;DHT22;62026;39.230;9.122;2023-08-06T15:53:37;27.50;35.00